KAPA/APA METAR and TAF weather

Enter ICAO airport designator
Station Type Date Time Source
KAPA METAR 2021/05/10 00:53 UTC NOAA

KAPA 100053Z 16010KT 10SM -RA BKN025 OVC032 06/01 A3006 RMK AO2 SLP180 P0002 T00610011


Station Type Date Time Source
KAPA Decoded METAR 2021/05/10 00:53 UTC NOAA

DENVER CENTENNIAL AIRPORT, CO, United States (KAPA) 39-34N 104-51W 1775M
May 09, 2021 - 08:53 PM EDT / 2021.05.10 0053 UTC
Wind: from the SSE (160 degrees) at 12 MPH (10 KT):0
Visibility: 10 mile(s):0
Sky conditions: overcast
Weather: light rain
Precipitation last hour: 0.02 inches
Temperature: 43.0 F (6.1 C)
Dew Point: 34.0 F (1.1 C)
Relative Humidity: 70%
Pressure (altimeter): 30.06 in. Hg (1017 hPa)
ob: KAPA 100053Z 16010KT 10SM -RA BKN025 OVC032 06/01 A3006 RMK AO2 SLP180 P0002 T00610011
cycle: 1

Station Type Date Time Source
KAPA TAF 2021/05/09 21:34 UTC NOAA

TAF
AMD KAPA 092032Z 0921/1018 14010KT P6SM VCSH SCT035 OVC050
TEMPO 0921/1001 -SHRA BKN035
FM100100 13008KT P6SM -RA BKN015 OVC025
FM101200 12009KT P6SM -RA BKN008 OVC015

Example: see airport list